Ide Min — PC8366 — position and weather

sailwx.info

Track history (hours):
 
Tides and Currents Weather Stations Pressure Air Temp Water Temp Dewpoint Dewpoint Depression Visibility Wind Speed Wind Dir Waves Ship Positions

Ide Min (Netherlands)

Ship's website: http://www.idemin.nl/english/english.html

Last reported at 2015-Aug-30 10:20 UTC. Time now 2015-Sep-01 08:02 UTC.
Position N 54°45' E 009°59'.

Length 40 m; draft 2.4 m.

MMSI: 244537000.

Date/timePositionNaut miles runAvg speedWind from/ knotsBaromVisibWave heightAir tempDewpointWater temp
2015-Aug-30 10:20N 54°45' E 009°59'5 4.4
2015-Aug-30 09:11N 54°41' E 010°05'2 3.4
2015-Aug-30 08:33N 54°39' E 010°04'4 4.0
2015-Aug-30 07:30N 54°35' E 010°02'0 0.0
2015-Aug-30 06:33N 54°35' E 010°02'0 0.0
2015-Aug-30 05:33N 54°35' E 010°02'0 0.0
2015-Aug-30 04:33N 54°35' E 010°02'0 0.0
2015-Aug-30 03:33N 54°35' E 010°02'0 0.0
2015-Aug-30 02:33N 54°35' E 010°02'0 0.0
2015-Aug-30 01:32N 54°35' E 010°02'0 0.0
2015-Aug-30 00:32N 54°35' E 010°02'0 0.0
2015-Aug-29 23:32N 54°35' E 010°02'0 0.0
2015-Aug-29 22:32N 54°35' E 010°02'0 0.0
2015-Aug-29 21:32N 54°35' E 010°02'0 0.0
2015-Aug-29 20:33N 54°35' E 010°02'0 0.0
2015-Aug-29 19:33N 54°35' E 010°02'0 0.0
2015-Aug-29 18:32N 54°35' E 010°02'0 0.0
2015-Aug-29 17:32N 54°35' E 010°02'0 0.0
2015-Aug-29 16:32N 54°35' E 010°02'0 0.0
2015-Aug-29 15:33N 54°35' E 010°02'2 2.4
2015-Aug-29 14:33N 54°33' E 010°04'5 4.7
2015-Aug-29 13:33N 54°31' E 010°11'3 2.9
2015-Aug-29 12:33N 54°28' E 010°14'3 3.0
2015-Aug-29 11:33N 54°25' E 010°12'3 2.8
2015-Aug-29 10:32N 54°23' E 010°11'1 0.9
2015-Aug-29 09:31N 54°22' E 010°09'0 0.0
2015-Aug-29 08:31N 54°22' E 010°09'0 0.0
2015-Aug-29 07:31N 54°22' E 010°09'0 0.0
2015-Aug-29 06:31N 54°22' E 010°09'0 0.0
2015-Aug-29 05:31N 54°22' E 010°09'0 0.0
2015-Aug-29 04:31N 54°22' E 010°09'0 0.0
2015-Aug-29 03:31N 54°22' E 010°09'0 0.0
2015-Aug-29 02:31N 54°22' E 010°09'0 0.0
2015-Aug-29 01:31N 54°22' E 010°09'0 0.0
2015-Aug-29 00:31N 54°22' E 010°09'0 0.0
2015-Aug-28 23:31N 54°22' E 010°09'0 0.0
2015-Aug-28 22:31N 54°22' E 010°09'0 0.0
2015-Aug-28 21:31N 54°22' E 010°09'0 0.0
2015-Aug-28 20:31N 54°22' E 010°09'0 0.0
2015-Aug-28 19:31N 54°22' E 010°09'0 0.0
2015-Aug-28 18:31N 54°22' E 010°09'0 0.0
2015-Aug-28 17:31N 54°22' E 010°09'0 0.0
2015-Aug-28 16:31N 54°22' E 010°09'0 0.0
2015-Aug-28 15:31N 54°22' E 010°09'0 0.0
2015-Aug-28 14:31N 54°22' E 010°09'0 0.0
2015-Aug-28 13:31N 54°22' E 010°09'0 0.0
2015-Aug-28 12:33N 54°22' E 010°09'3 3.3
2015-Aug-28 11:33N 54°25' E 010°12'2 1.8
2015-Aug-28 10:33N 54°27' E 010°13'3 3.1
2015-Aug-28 09:33N 54°29' E 010°10'5 4.9
2015-Aug-28 08:33N 54°33' E 010°05'3 2.5
2015-Aug-28 07:28N 54°35' E 010°02'0 0.0
2015-Aug-28 06:28N 54°35' E 010°02'0 0.0
2015-Aug-28 05:31N 54°35' E 010°02'0 0.0
2015-Aug-28 04:31N 54°35' E 010°02'0 0.0
2015-Aug-28 03:28N 54°35' E 010°02'0 0.0
2015-Aug-28 02:31N 54°35' E 010°02'0 0.0
2015-Aug-28 01:31N 54°35' E 010°02'0 0.0
2015-Aug-28 00:31N 54°35' E 010°02'0 0.0
2015-Aug-27 23:31N 54°35' E 010°02'0 0.0
2015-Aug-27 22:31N 54°35' E 010°02'0 0.0
2015-Aug-27 21:31N 54°35' E 010°02'0 0.0
2015-Aug-27 20:31N 54°35' E 010°02'0 0.0
2015-Aug-27 19:28N 54°35' E 010°02'0 0.0
2015-Aug-27 18:25N 54°35' E 010°02'0 0.0
2015-Aug-27 17:19N 54°35' E 010°02'0 0.0
2015-Aug-27 16:11N 54°35' E 010°02'0 0.7
2015-Aug-27 15:32N 54°35' E 010°02'4 3.5
2015-Aug-27 14:22N 54°39' E 010°04'3 3.1
2015-Aug-27 13:33N 54°42' E 010°03'10 0.5
2015-Aug-26 16:08N 54°51' E 010°04'22 1.2
2015-Aug-25 21:33N 55°03' E 010°37'0 0.0
2015-Aug-25 16:15N 55°03' E 010°37'0 0.0
2015-Aug-25 14:28N 55°03' E 010°37'0 0.0
2015-Aug-25 13:33N 55°03' E 010°37'3 3.2
2015-Aug-25 12:33N 55°02' E 010°32'5 4.7
2015-Aug-25 11:30N 54°58' E 010°27'5 5.6
2015-Aug-25 10:32N 54°53' E 010°33'2 2.3
2015-Aug-25 09:33N 54°51' E 010°31'0 0.0
2015-Aug-25 08:33N 54°51' E 010°31'0 0.0
2015-Aug-25 07:33N 54°51' E 010°31'0 0.0
2015-Aug-24 21:33N 54°51' E 010°31'0 0.0
2015-Aug-24 20:33N 54°51' E 010°31'0 0.0
2015-Aug-24 19:33N 54°51' E 010°31'0 0.0
2015-Aug-24 18:33N 54°51' E 010°31'0 0.0
2015-Aug-24 17:32N 54°51' E 010°31'0 0.0
2015-Aug-24 16:33N 54°51' E 010°31'2 1.8
2015-Aug-24 15:32N 54°50' E 010°33'14 6.5
2015-Aug-24 13:21N 54°37' E 010°22'17 2.8
2015-Aug-24 07:30N 54°22' E 010°09'0 0.0
2015-Aug-24 06:33N 54°22' E 010°09'0 0.0
2015-Aug-24 05:30N 54°22' E 010°09'0 0.0
2015-Aug-24 04:30N 54°22' E 010°09'0 0.0
2015-Aug-24 03:33N 54°22' E 010°09'0 0.0
2015-Aug-24 02:33N 54°22' E 010°09'0 0.0
2015-Aug-24 01:33N 54°22' E 010°09'0 0.0
2015-Aug-24 00:33N 54°22' E 010°09'0 0.0
2015-Aug-23 23:33N 54°22' E 010°09'0 0.0
2015-Aug-23 22:30N 54°22' E 010°09'0 0.0
2015-Aug-23 21:30N 54°22' E 010°09'0 0.0
2015-Aug-23 20:30N 54°22' E 010°09'0 0.0
2015-Aug-23 19:30N 54°22' E 010°09'0 0.0
2015-Aug-23 18:30N 54°22' E 010°09'0 0.0
2015-Aug-23 17:30N 54°22' E 010°09'0 0.0
2015-Aug-23 16:30N 54°22' E 010°09'0 0.0
2015-Aug-23 15:33N 54°22' E 010°09'0 0.0
2015-Aug-23 14:30N 54°22' E 010°09'0 0.0
2015-Aug-23 13:33N 54°22' E 010°09'0 0.0
2015-Aug-23 12:30N 54°22' E 010°09'0 0.0
2015-Aug-23 11:30N 54°22' E 010°09'0 0.0
2015-Aug-23 10:30N 54°22' E 010°09'0 0.0
2015-Aug-23 09:30N 54°22' E 010°09'0 0.0
2015-Aug-23 08:33N 54°22' E 010°09'0 0.0
2015-Aug-23 07:33N 54°22' E 010°09'0 0.0
2015-Aug-23 06:33N 54°22' E 010°09'0 0.0
2015-Aug-23 05:30N 54°22' E 010°09'0 0.0
2015-Aug-23 04:30N 54°22' E 010°09'0 0.0
2015-Aug-23 03:33N 54°22' E 010°09'0 0.0
2015-Aug-23 02:33N 54°22' E 010°09'0 0.0
2015-Aug-23 01:33N 54°22' E 010°09'0 0.0
2015-Aug-23 00:33N 54°22' E 010°09'0 0.0
2015-Aug-22 23:33N 54°22' E 010°09'0 0.0
2015-Aug-22 22:24N 54°22' E 010°09'0 0.0
2015-Aug-22 21:33N 54°22' E 010°09'0 0.0
2015-Aug-22 20:33N 54°22' E 010°09'0 0.0
2015-Aug-22 19:30N 54°22' E 010°09'0 0.0
2015-Aug-22 18:33N 54°22' E 010°09'0 0.0
2015-Aug-22 17:30N 54°22' E 010°09'0 0.0
2015-Aug-22 16:33N 54°22' E 010°09'0 0.0
2015-Aug-22 15:33N 54°22' E 010°09'0 0.0
2015-Aug-22 14:33N 54°22' E 010°09'0 0.0
2015-Aug-22 13:30N 54°22' E 010°09'0 0.0
2015-Aug-22 12:30N 54°22' E 010°09'0 0.0
2015-Aug-22 11:33N 54°22' E 010°09'0 0.0
2015-Aug-22 10:33N 54°22' E 010°09'0 0.0
2015-Aug-22 09:33N 54°22' E 010°09'0 0.0
2015-Aug-22 08:33N 54°22' E 010°09'0 0.0
2015-Aug-22 07:33N 54°22' E 010°09'0 0.0
2015-Aug-22 06:33N 54°22' E 010°09'0 0.0
2015-Aug-22 05:27N 54°22' E 010°09'0 0.0
2015-Aug-22 04:33N 54°22' E 010°09'0 0.0
2015-Aug-22 03:33N 54°22' E 010°09'0 0.0
2015-Aug-22 02:33N 54°22' E 010°09'0 0.0
2015-Aug-22 01:33N 54°22' E 010°09'0 0.0
2015-Aug-22 00:33N 54°22' E 010°09'0 0.0
2015-Aug-21 23:33N 54°22' E 010°09'0 0.0
2015-Aug-21 22:33N 54°22' E 010°09'0 0.0
2015-Aug-21 21:33N 54°22' E 010°09'0 0.0
2015-Aug-21 20:30N 54°22' E 010°09'0 0.0
2015-Aug-21 19:33N 54°22' E 010°09'0 0.0
2015-Aug-21 18:33N 54°22' E 010°09'0 0.0
2015-Aug-21 17:33N 54°22' E 010°09'0 0.0
2015-Aug-21 16:33N 54°22' E 010°09'0 0.0
2015-Aug-21 15:33N 54°22' E 010°09'0 0.0
2015-Aug-21 14:33N 54°22' E 010°09'0 0.0
2015-Aug-21 13:24N 54°22' E 010°09'0 0.0
2015-Aug-21 12:33N 54°22' E 010°09'0 0.0
2015-Aug-21 11:33N 54°22' E 010°09'0 0.0
2015-Aug-21 10:33N 54°22' E 010°09'0 0.0
2015-Aug-21 09:33N 54°22' E 010°09'0 0.0
2015-Aug-21 08:33N 54°22' E 010°09'0 0.0
2015-Aug-21 07:33N 54°22' E 010°09'0 0.0
2015-Aug-21 06:33N 54°22' E 010°09'0 0.0
2015-Aug-21 05:33N 54°22' E 010°09'0 0.0
2015-Aug-21 04:33N 54°22' E 010°09'0 0.0
2015-Aug-21 03:33N 54°22' E 010°09'0 0.0
2015-Aug-21 02:33N 54°22' E 010°09'0 0.0
2015-Aug-21 01:33N 54°22' E 010°09'0 0.0
2015-Aug-21 00:33N 54°22' E 010°09'0 0.0
2015-Aug-20 23:32N 54°22' E 010°09'0 0.0
2015-Aug-20 22:32N 54°22' E 010°09'0 0.0
2015-Aug-20 21:32N 54°22' E 010°09'0 0.0
2015-Aug-20 20:33N 54°22' E 010°09'0 0.0
2015-Aug-20 19:29N 54°22' E 010°09'0 0.0
2015-Aug-20 18:32N 54°22' E 010°09'0 0.0
2015-Aug-20 17:33N 54°22' E 010°09'0 0.0
2015-Aug-20 16:29N 54°22' E 010°09'0 0.0
2015-Aug-20 15:32N 54°22' E 010°09'0 0.0
2015-Aug-20 14:32N 54°22' E 010°09'0 0.0
2015-Aug-20 13:29N 54°22' E 010°09'0 0.0
2015-Aug-20 12:32N 54°22' E 010°09'0 0.0
2015-Aug-20 11:32N 54°22' E 010°09'0 0.0
2015-Aug-20 10:32N 54°22' E 010°09'  
Track history (hours):
 
Tides and Currents Weather Stations Pressure Air Temp Water Temp Dewpoint Dewpoint Depression Visibility Wind Speed Wind Dir Waves Ship Positions

Ide Min (Netherlands)

Ship's website: http://www.idemin.nl/english/english.html

Last reported at 2015-Aug-30 10:20 UTC. Time now 2015-Sep-01 08:02 UTC.
Position N 54°45' E 009°59'.

Length 40 m; draft 2.4 m.

MMSI: 244537000.

Date/timePositionNaut miles runAvg speedWind from/ knotsBaromVisibWave heightAir tempDewpointWater temp
2015-Aug-30 10:20N 54°45' E 009°59'5 4.4
2015-Aug-30 09:11N 54°41' E 010°05'2 3.4
2015-Aug-30 08:33N 54°39' E 010°04'4 4.0
2015-Aug-30 07:30N 54°35' E 010°02'0 0.0
2015-Aug-30 06:33N 54°35' E 010°02'0 0.0
2015-Aug-30 05:33N 54°35' E 010°02'0 0.0
2015-Aug-30 04:33N 54°35' E 010°02'0 0.0
2015-Aug-30 03:33N 54°35' E 010°02'0 0.0
2015-Aug-30 02:33N 54°35' E 010°02'0 0.0
2015-Aug-30 01:32N 54°35' E 010°02'0 0.0
2015-Aug-30 00:32N 54°35' E 010°02'0 0.0
2015-Aug-29 23:32N 54°35' E 010°02'0 0.0
2015-Aug-29 22:32N 54°35' E 010°02'0 0.0
2015-Aug-29 21:32N 54°35' E 010°02'0 0.0
2015-Aug-29 20:33N 54°35' E 010°02'0 0.0
2015-Aug-29 19:33N 54°35' E 010°02'0 0.0
2015-Aug-29 18:32N 54°35' E 010°02'0 0.0
2015-Aug-29 17:32N 54°35' E 010°02'0 0.0
2015-Aug-29 16:32N 54°35' E 010°02'0 0.0
2015-Aug-29 15:33N 54°35' E 010°02'2 2.4
2015-Aug-29 14:33N 54°33' E 010°04'5 4.7
2015-Aug-29 13:33N 54°31' E 010°11'3 2.9
2015-Aug-29 12:33N 54°28' E 010°14'3 3.0
2015-Aug-29 11:33N 54°25' E 010°12'3 2.8
2015-Aug-29 10:32N 54°23' E 010°11'1 0.9
2015-Aug-29 09:31N 54°22' E 010°09'0 0.0
2015-Aug-29 08:31N 54°22' E 010°09'0 0.0
2015-Aug-29 07:31N 54°22' E 010°09'0 0.0
2015-Aug-29 06:31N 54°22' E 010°09'0 0.0
2015-Aug-29 05:31N 54°22' E 010°09'0 0.0
2015-Aug-29 04:31N 54°22' E 010°09'0 0.0
2015-Aug-29 03:31N 54°22' E 010°09'0 0.0
2015-Aug-29 02:31N 54°22' E 010°09'0 0.0
2015-Aug-29 01:31N 54°22' E 010°09'0 0.0
2015-Aug-29 00:31N 54°22' E 010°09'0 0.0
2015-Aug-28 23:31N 54°22' E 010°09'0 0.0
2015-Aug-28 22:31N 54°22' E 010°09'0 0.0
2015-Aug-28 21:31N 54°22' E 010°09'0 0.0
2015-Aug-28 20:31N 54°22' E 010°09'0 0.0
2015-Aug-28 19:31N 54°22' E 010°09'0 0.0
2015-Aug-28 18:31N 54°22' E 010°09'0 0.0
2015-Aug-28 17:31N 54°22' E 010°09'0 0.0
2015-Aug-28 16:31N 54°22' E 010°09'0 0.0
2015-Aug-28 15:31N 54°22' E 010°09'0 0.0
2015-Aug-28 14:31N 54°22' E 010°09'0 0.0
2015-Aug-28 13:31N 54°22' E 010°09'0 0.0
2015-Aug-28 12:33N 54°22' E 010°09'3 3.3
2015-Aug-28 11:33N 54°25' E 010°12'2 1.8
2015-Aug-28 10:33N 54°27' E 010°13'3 3.1
2015-Aug-28 09:33N 54°29' E 010°10'5 4.9
2015-Aug-28 08:33N 54°33' E 010°05'3 2.5
2015-Aug-28 07:28N 54°35' E 010°02'0 0.0
2015-Aug-28 06:28N 54°35' E 010°02'0 0.0
2015-Aug-28 05:31N 54°35' E 010°02'0 0.0
2015-Aug-28 04:31N 54°35' E 010°02'0 0.0
2015-Aug-28 03:28N 54°35' E 010°02'0 0.0
2015-Aug-28 02:31N 54°35' E 010°02'0 0.0
2015-Aug-28 01:31N 54°35' E 010°02'0 0.0
2015-Aug-28 00:31N 54°35' E 010°02'0 0.0
2015-Aug-27 23:31N 54°35' E 010°02'0 0.0
2015-Aug-27 22:31N 54°35' E 010°02'0 0.0
2015-Aug-27 21:31N 54°35' E 010°02'0 0.0
2015-Aug-27 20:31N 54°35' E 010°02'0 0.0
2015-Aug-27 19:28N 54°35' E 010°02'0 0.0
2015-Aug-27 18:25N 54°35' E 010°02'0 0.0
2015-Aug-27 17:19N 54°35' E 010°02'0 0.0
2015-Aug-27 16:11N 54°35' E 010°02'0 0.7
2015-Aug-27 15:32N 54°35' E 010°02'4 3.5
2015-Aug-27 14:22N 54°39' E 010°04'3 3.1
2015-Aug-27 13:33N 54°42' E 010°03'10 0.5
2015-Aug-26 16:08N 54°51' E 010°04'22 1.2
2015-Aug-25 21:33N 55°03' E 010°37'0 0.0
2015-Aug-25 16:15N 55°03' E 010°37'0 0.0
2015-Aug-25 14:28N 55°03' E 010°37'0 0.0
2015-Aug-25 13:33N 55°03' E 010°37'3 3.2
2015-Aug-25 12:33N 55°02' E 010°32'5 4.7
2015-Aug-25 11:30N 54°58' E 010°27'5 5.6
2015-Aug-25 10:32N 54°53' E 010°33'2 2.3
2015-Aug-25 09:33N 54°51' E 010°31'0 0.0
2015-Aug-25 08:33N 54°51' E 010°31'0 0.0
2015-Aug-25 07:33N 54°51' E 010°31'0 0.0
2015-Aug-24 21:33N 54°51' E 010°31'0 0.0
2015-Aug-24 20:33N 54°51' E 010°31'0 0.0
2015-Aug-24 19:33N 54°51' E 010°31'0 0.0
2015-Aug-24 18:33N 54°51' E 010°31'0 0.0
2015-Aug-24 17:32N 54°51' E 010°31'0 0.0
2015-Aug-24 16:33N 54°51' E 010°31'2 1.8
2015-Aug-24 15:32N 54°50' E 010°33'14 6.5
2015-Aug-24 13:21N 54°37' E 010°22'17 2.8
2015-Aug-24 07:30N 54°22' E 010°09'0 0.0
2015-Aug-24 06:33N 54°22' E 010°09'0 0.0
2015-Aug-24 05:30N 54°22' E 010°09'0 0.0
2015-Aug-24 04:30N 54°22' E 010°09'0 0.0
2015-Aug-24 03:33N 54°22' E 010°09'0 0.0
2015-Aug-24 02:33N 54°22' E 010°09'0 0.0
2015-Aug-24 01:33N 54°22' E 010°09'0 0.0
2015-Aug-24 00:33N 54°22' E 010°09'0 0.0
2015-Aug-23 23:33N 54°22' E 010°09'0 0.0
2015-Aug-23 22:30N 54°22' E 010°09'0 0.0
2015-Aug-23 21:30N 54°22' E 010°09'0 0.0
2015-Aug-23 20:30N 54°22' E 010°09'0 0.0
2015-Aug-23 19:30N 54°22' E 010°09'0 0.0
2015-Aug-23 18:30N 54°22' E 010°09'0 0.0
2015-Aug-23 17:30N 54°22' E 010°09'0 0.0
2015-Aug-23 16:30N 54°22' E 010°09'0 0.0
2015-Aug-23 15:33N 54°22' E 010°09'0 0.0
2015-Aug-23 14:30N 54°22' E 010°09'0 0.0
2015-Aug-23 13:33N 54°22' E 010°09'0 0.0
2015-Aug-23 12:30N 54°22' E 010°09'0 0.0
2015-Aug-23 11:30N 54°22' E 010°09'0 0.0
2015-Aug-23 10:30N 54°22' E 010°09'0 0.0
2015-Aug-23 09:30N 54°22' E 010°09'0 0.0
2015-Aug-23 08:33N 54°22' E 010°09'0 0.0
2015-Aug-23 07:33N 54°22' E 010°09'0 0.0
2015-Aug-23 06:33N 54°22' E 010°09'0 0.0
2015-Aug-23 05:30N 54°22' E 010°09'0 0.0
2015-Aug-23 04:30N 54°22' E 010°09'0 0.0
2015-Aug-23 03:33N 54°22' E 010°09'0 0.0
2015-Aug-23 02:33N 54°22' E 010°09'0 0.0
2015-Aug-23 01:33N 54°22' E 010°09'0 0.0
2015-Aug-23 00:33N 54°22' E 010°09'0 0.0
2015-Aug-22 23:33N 54°22' E 010°09'0 0.0
2015-Aug-22 22:24N 54°22' E 010°09'0 0.0
2015-Aug-22 21:33N 54°22' E 010°09'0 0.0
2015-Aug-22 20:33N 54°22' E 010°09'0 0.0
2015-Aug-22 19:30N 54°22' E 010°09'0 0.0
2015-Aug-22 18:33N 54°22' E 010°09'0 0.0
2015-Aug-22 17:30N 54°22' E 010°09'0 0.0
2015-Aug-22 16:33N 54°22' E 010°09'0 0.0
2015-Aug-22 15:33N 54°22' E 010°09'0 0.0
2015-Aug-22 14:33N 54°22' E 010°09'0 0.0
2015-Aug-22 13:30N 54°22' E 010°09'0 0.0
2015-Aug-22 12:30N 54°22' E 010°09'0 0.0
2015-Aug-22 11:33N 54°22' E 010°09'0 0.0
2015-Aug-22 10:33N 54°22' E 010°09'0 0.0
2015-Aug-22 09:33N 54°22' E 010°09'0 0.0
2015-Aug-22 08:33N 54°22' E 010°09'0 0.0
2015-Aug-22 07:33N 54°22' E 010°09'0 0.0
2015-Aug-22 06:33N 54°22' E 010°09'0 0.0
2015-Aug-22 05:27N 54°22' E 010°09'0 0.0
2015-Aug-22 04:33N 54°22' E 010°09'0 0.0
2015-Aug-22 03:33N 54°22' E 010°09'0 0.0
2015-Aug-22 02:33N 54°22' E 010°09'0 0.0
2015-Aug-22 01:33N 54°22' E 010°09'0 0.0
2015-Aug-22 00:33N 54°22' E 010°09'0 0.0
2015-Aug-21 23:33N 54°22' E 010°09'0 0.0
2015-Aug-21 22:33N 54°22' E 010°09'0 0.0
2015-Aug-21 21:33N 54°22' E 010°09'0 0.0
2015-Aug-21 20:30N 54°22' E 010°09'0 0.0
2015-Aug-21 19:33N 54°22' E 010°09'0 0.0
2015-Aug-21 18:33N 54°22' E 010°09'0 0.0
2015-Aug-21 17:33N 54°22' E 010°09'0 0.0
2015-Aug-21 16:33N 54°22' E 010°09'0 0.0
2015-Aug-21 15:33N 54°22' E 010°09'0 0.0
2015-Aug-21 14:33N 54°22' E 010°09'0 0.0
2015-Aug-21 13:24N 54°22' E 010°09'0 0.0
2015-Aug-21 12:33N 54°22' E 010°09'0 0.0
2015-Aug-21 11:33N 54°22' E 010°09'0 0.0
2015-Aug-21 10:33N 54°22' E 010°09'0 0.0
2015-Aug-21 09:33N 54°22' E 010°09'0 0.0
2015-Aug-21 08:33N 54°22' E 010°09'0 0.0
2015-Aug-21 07:33N 54°22' E 010°09'0 0.0
2015-Aug-21 06:33N 54°22' E 010°09'0 0.0
2015-Aug-21 05:33N 54°22' E 010°09'0 0.0
2015-Aug-21 04:33N 54°22' E 010°09'0 0.0
2015-Aug-21 03:33N 54°22' E 010°09'0 0.0
2015-Aug-21 02:33N 54°22' E 010°09'0 0.0
2015-Aug-21 01:33N 54°22' E 010°09'0 0.0
2015-Aug-21 00:33N 54°22' E 010°09'0 0.0
2015-Aug-20 23:32N 54°22' E 010°09'0 0.0
2015-Aug-20 22:32N 54°22' E 010°09'0 0.0
2015-Aug-20 21:32N 54°22' E 010°09'0 0.0
2015-Aug-20 20:33N 54°22' E 010°09'0 0.0
2015-Aug-20 19:29N 54°22' E 010°09'0 0.0
2015-Aug-20 18:32N 54°22' E 010°09'0 0.0
2015-Aug-20 17:33N 54°22' E 010°09'0 0.0
2015-Aug-20 16:29N 54°22' E 010°09'0 0.0
2015-Aug-20 15:32N 54°22' E 010°09'0 0.0
2015-Aug-20 14:32N 54°22' E 010°09'0 0.0
2015-Aug-20 13:29N 54°22' E 010°09'0 0.0
2015-Aug-20 12:32N 54°22' E 010°09'0 0.0
2015-Aug-20 11:32N 54°22' E 010°09'0 0.0
2015-Aug-20 10:32N 54°22' E 010°09'  

Dump ship's entire track history